sensor_id;sensor_type;location;lat;lon;timestamp;temperature;humidity
8340;DHT22;4207;49.314;7.162;2023-02-19T00:01:46;8.40;99.90
8340;DHT22;4207;49.314;7.162;2023-02-19T00:04:16;8.30;99.90
8340;DHT22;4207;49.314;7.162;2023-02-19T00:06:46;8.30;99.90
8340;DHT22;4207;49.314;7.162;2023-02-19T00:09:16;8.40;99.90
8340;DHT22;4207;49.314;7.162;2023-02-19T00:11:44;8.50;99.90
8340;DHT22;4207;49.314;7.162;2023-02-19T00:14:15;8.30;99.90
8340;DHT22;4207;49.314;7.162;2023-02-19T00:16:43;8.30;99.90
8340;DHT22;4207;49.314;7.162;2023-02-19T00:19:16;8.30;99.90
8340;DHT22;4207;49.314;7.162;2023-02-19T00:21:44;8.30;99.90
8340;DHT22;4207;49.314;7.162;2023-02-19T00:24:13;8.30;99.90
8340;DHT22;4207;49.314;7.162;2023-02-19T00:26:42;8.30;99.90
8340;DHT22;4207;49.314;7.162;2023-02-19T00:29:12;8.20;99.90
8340;DHT22;4207;49.314;7.162;2023-02-19T00:31:41;8.20;99.90
8340;DHT22;4207;49.314;7.162;2023-02-19T00:34:10;8.20;99.90
8340;DHT22;4207;49.314;7.162;2023-02-19T00:36:40;8.20;99.90
8340;DHT22;4207;49.314;7.162;2023-02-19T00:39:11;8.20;99.90
8340;DHT22;4207;49.314;7.162;2023-02-19T00:41:41;8.20;99.90
8340;DHT22;4207;49.314;7.162;2023-02-19T00:44:10;8.20;99.90
8340;DHT22;4207;49.314;7.162;2023-02-19T00:46:40;8.30;99.90
8340;DHT22;4207;49.314;7.162;2023-02-19T00:49:12;8.30;99.90
8340;DHT22;4207;49.314;7.162;2023-02-19T00:51:43;8.30;99.90
8340;DHT22;4207;49.314;7.162;2023-02-19T00:54:11;8.40;99.90
8340;DHT22;4207;49.314;7.162;2023-02-19T00:56:40;8.40;99.90
8340;DHT22;4207;49.314;7.162;2023-02-19T00:59:08;8.40;99.90
8340;DHT22;4207;49.314;7.162;2023-02-19T01:01:36;8.50;99.90
8340;DHT22;4207;49.314;7.162;2023-02-19T01:04:05;8.50;99.90
8340;DHT22;4207;49.314;7.162;2023-02-19T01:06:33;8.50;99.90
8340;DHT22;4207;49.314;7.162;2023-02-19T01:09:03;8.50;99.90
8340;DHT22;4207;49.314;7.162;2023-02-19T01:11:33;8.50;99.90
8340;DHT22;4207;49.314;7.162;2023-02-19T01:14:02;8.50;99.90
8340;DHT22;4207;49.314;7.162;2023-02-19T01:16:30;8.40;99.90
8340;DHT22;4207;49.314;7.162;2023-02-19T01:18:58;8.50;99.90
8340;DHT22;4207;49.314;7.162;2023-02-19T01:21:27;8.40;99.90
8340;DHT22;4207;49.314;7.162;2023-02-19T01:23:56;8.30;99.90
8340;DHT22;4207;49.314;7.162;2023-02-19T01:26:28;8.30;99.90
8340;DHT22;4207;49.314;7.162;2023-02-19T01:28:57;8.20;99.90
8340;DHT22;4207;49.314;7.162;2023-02-19T01:31:25;8.20;99.90
8340;DHT22;4207;49.314;7.162;2023-02-19T01:33:56;8.20;99.90
8340;DHT22;4207;49.314;7.162;2023-02-19T01:36:24;8.20;99.90
8340;DHT22;4207;49.314;7.162;2023-02-19T01:38:53;8.20;99.90
8340;DHT22;4207;49.314;7.162;2023-02-19T01:41:23;8.20;99.90
8340;DHT22;4207;49.314;7.162;2023-02-19T01:44:03;8.20;99.90
8340;DHT22;4207;49.314;7.162;2023-02-19T01:46:35;8.20;99.90
8340;DHT22;4207;49.314;7.162;2023-02-19T01:49:06;8.20;99.90
8340;DHT22;4207;49.314;7.162;2023-02-19T01:51:40;8.20;99.90
8340;DHT22;4207;49.314;7.162;2023-02-19T01:54:12;8.20;99.90
8340;DHT22;4207;49.314;7.162;2023-02-19T01:56:43;8.20;99.90
8340;DHT22;4207;49.314;7.162;2023-02-19T01:59:13;8.30;99.90
8340;DHT22;4207;49.314;7.162;2023-02-19T02:01:43;8.20;99.90
8340;DHT22;4207;49.314;7.162;2023-02-19T02:04:12;8.20;99.90
8340;DHT22;4207;49.314;7.162;2023-02-19T02:06:45;8.30;99.90
8340;DHT22;4207;49.314;7.162;2023-02-19T02:09:15;8.20;99.90
8340;DHT22;4207;49.314;7.162;2023-02-19T02:12:00;8.30;99.90
8340;DHT22;4207;49.314;7.162;2023-02-19T02:14:34;8.30;99.90
8340;DHT22;4207;49.314;7.162;2023-02-19T02:17:09;8.30;99.90
8340;DHT22;4207;49.314;7.162;2023-02-19T02:19:58;8.30;99.90
8340;DHT22;4207;49.314;7.162;2023-02-19T02:22:31;8.30;99.90
8340;DHT22;4207;49.314;7.162;2023-02-19T02:25:27;8.30;99.90
8340;DHT22;4207;49.314;7.162;2023-02-19T02:28:09;8.40;99.90
8340;DHT22;4207;49.314;7.162;2023-02-19T02:30:46;8.30;99.90
8340;DHT22;4207;49.314;7.162;2023-02-19T02:33:22;8.30;99.90
8340;DHT22;4207;49.314;7.162;2023-02-19T02:35:56;8.30;99.90
8340;DHT22;4207;49.314;7.162;2023-02-19T02:38:29;8.30;99.90
8340;DHT22;4207;49.314;7.162;2023-02-19T02:40:59;8.30;99.90
8340;DHT22;4207;49.314;7.162;2023-02-19T02:43:28;8.30;99.90
8340;DHT22;4207;49.314;7.162;2023-02-19T02:45:58;8.40;99.90
8340;DHT22;4207;49.314;7.162;2023-02-19T02:48:33;8.40;99.90
8340;DHT22;4207;49.314;7.162;2023-02-19T02:51:08;8.40;99.90
8340;DHT22;4207;49.314;7.162;2023-02-19T02:53:49;8.40;99.90
8340;DHT22;4207;49.314;7.162;2023-02-19T02:56:38;8.40;99.90
8340;DHT22;4207;49.314;7.162;2023-02-19T02:59:09;8.40;99.90
8340;DHT22;4207;49.314;7.162;2023-02-19T03:01:42;8.40;99.90
8340;DHT22;4207;49.314;7.162;2023-02-19T03:04:34;8.40;99.90
8340;DHT22;4207;49.314;7.162;2023-02-19T03:07:25;8.50;99.90
8340;DHT22;4207;49.314;7.162;2023-02-19T03:09:56;8.50;99.90
8340;DHT22;4207;49.314;7.162;2023-02-19T03:12:28;8.50;99.90
8340;DHT22;4207;49.314;7.162;2023-02-19T03:15:16;8.50;99.90
8340;DHT22;4207;49.314;7.162;2023-02-19T03:18:07;8.50;99.90
8340;DHT22;4207;49.314;7.162;2023-02-19T03:20:56;8.50;99.90
8340;DHT22;4207;49.314;7.162;2023-02-19T03:23:27;8.40;99.90
8340;DHT22;4207;49.314;7.162;2023-02-19T03:26:11;8.40;99.90
8340;DHT22;4207;49.314;7.162;2023-02-19T03:28:50;8.30;99.90
8340;DHT22;4207;49.314;7.162;2023-02-19T03:31:41;8.30;99.90
8340;DHT22;4207;49.314;7.162;2023-02-19T03:34:16;8.30;99.90
8340;DHT22;4207;49.314;7.162;2023-02-19T03:36:51;8.30;99.90
8340;DHT22;4207;49.314;7.162;2023-02-19T03:39:25;8.30;99.90
8340;DHT22;4207;49.314;7.162;2023-02-19T03:41:59;8.20;99.90
8340;DHT22;4207;49.314;7.162;2023-02-19T03:44:38;8.30;99.90
8340;DHT22;4207;49.314;7.162;2023-02-19T03:47:13;8.20;99.90
8340;DHT22;4207;49.314;7.162;2023-02-19T03:49:47;8.20;99.90
8340;DHT22;4207;49.314;7.162;2023-02-19T03:52:22;8.20;99.90
8340;DHT22;4207;49.314;7.162;2023-02-19T03:54:56;8.20;99.90
8340;DHT22;4207;49.314;7.162;2023-02-19T03:57:36;8.30;99.90
8340;DHT22;4207;49.314;7.162;2023-02-19T04:00:11;8.30;99.90
8340;DHT22;4207;49.314;7.162;2023-02-19T04:02:46;8.30;99.90
8340;DHT22;4207;49.314;7.162;2023-02-19T04:05:19;8.30;99.90
8340;DHT22;4207;49.314;7.162;2023-02-19T04:07:49;8.30;99.90
8340;DHT22;4207;49.314;7.162;2023-02-19T04:10:23;8.30;99.90
8340;DHT22;4207;49.314;7.162;2023-02-19T04:12:58;8.30;99.90
8340;DHT22;4207;49.314;7.162;2023-02-19T04:15:31;8.30;99.90
8340;DHT22;4207;49.314;7.162;2023-02-19T04:18:03;8.30;99.90
8340;DHT22;4207;49.314;7.162;2023-02-19T04:20:38;8.30;99.90
8340;DHT22;4207;49.314;7.162;2023-02-19T04:23:07;8.20;99.90
8340;DHT22;4207;49.314;7.162;2023-02-19T04:25:37;8.20;99.90
8340;DHT22;4207;49.314;7.162;2023-02-19T04:28:06;8.20;99.90
8340;DHT22;4207;49.314;7.162;2023-02-19T04:30:35;8.30;99.90
8340;DHT22;4207;49.314;7.162;2023-02-19T04:33:03;8.30;99.90
8340;DHT22;4207;49.314;7.162;2023-02-19T04:35:31;8.30;99.90
8340;DHT22;4207;49.314;7.162;2023-02-19T04:38:00;8.30;99.90
8340;DHT22;4207;49.314;7.162;2023-02-19T04:40:28;8.30;99.90
8340;DHT22;4207;49.314;7.162;2023-02-19T04:42:56;8.30;99.90
8340;DHT22;4207;49.314;7.162;2023-02-19T04:45:24;8.30;99.90
8340;DHT22;4207;49.314;7.162;2023-02-19T04:47:52;8.30;99.90
8340;DHT22;4207;49.314;7.162;2023-02-19T04:50:20;8.40;99.90
8340;DHT22;4207;49.314;7.162;2023-02-19T04:52:49;8.40;99.90
8340;DHT22;4207;49.314;7.162;2023-02-19T04:55:18;8.30;99.90
8340;DHT22;4207;49.314;7.162;2023-02-19T04:57:46;8.40;99.90
8340;DHT22;4207;49.314;7.162;2023-02-19T05:00:14;8.40;99.90
8340;DHT22;4207;49.314;7.162;2023-02-19T05:02:42;8.30;99.90
8340;DHT22;4207;49.314;7.162;2023-02-19T05:05:10;8.30;99.90
8340;DHT22;4207;49.314;7.162;2023-02-19T05:07:38;8.30;99.90
8340;DHT22;4207;49.314;7.162;2023-02-19T05:10:06;8.30;99.90
8340;DHT22;4207;49.314;7.162;2023-02-19T05:12:36;8.30;99.90
8340;DHT22;4207;49.314;7.162;2023-02-19T05:15:04;8.30;99.90
8340;DHT22;4207;49.314;7.162;2023-02-19T05:17:32;8.30;99.90
8340;DHT22;4207;49.314;7.162;2023-02-19T05:20:01;8.30;99.90
8340;DHT22;4207;49.314;7.162;2023-02-19T05:22:29;8.40;99.90
8340;DHT22;4207;49.314;7.162;2023-02-19T05:24:57;8.30;99.90
8340;DHT22;4207;49.314;7.162;2023-02-19T05:27:25;8.50;99.90
8340;DHT22;4207;49.314;7.162;2023-02-19T05:29:54;8.40;99.90
8340;DHT22;4207;49.314;7.162;2023-02-19T05:32:22;8.50;99.90
8340;DHT22;4207;49.314;7.162;2023-02-19T05:34:50;8.50;99.90
8340;DHT22;4207;49.314;7.162;2023-02-19T05:37:18;8.50;99.90
8340;DHT22;4207;49.314;7.162;2023-02-19T05:39:47;8.50;99.90
8340;DHT22;4207;49.314;7.162;2023-02-19T05:42:15;8.50;99.90
8340;DHT22;4207;49.314;7.162;2023-02-19T05:44:43;8.50;99.90
8340;DHT22;4207;49.314;7.162;2023-02-19T05:47:12;8.50;99.90
8340;DHT22;4207;49.314;7.162;2023-02-19T05:49:40;8.50;99.90
8340;DHT22;4207;49.314;7.162;2023-02-19T05:52:08;8.50;99.90
8340;DHT22;4207;49.314;7.162;2023-02-19T05:54:36;8.60;99.90
8340;DHT22;4207;49.314;7.162;2023-02-19T05:57:04;8.60;99.90
8340;DHT22;4207;49.314;7.162;2023-02-19T05:59:32;8.60;99.90
8340;DHT22;4207;49.314;7.162;2023-02-19T06:02:00;8.60;99.90
8340;DHT22;4207;49.314;7.162;2023-02-19T06:04:29;8.60;99.90
8340;DHT22;4207;49.314;7.162;2023-02-19T06:06:57;8.60;99.90
8340;DHT22;4207;49.314;7.162;2023-02-19T06:09:25;8.60;99.90
8340;DHT22;4207;49.314;7.162;2023-02-19T06:11:53;8.60;99.90
8340;DHT22;4207;49.314;7.162;2023-02-19T06:14:21;8.60;99.90
8340;DHT22;4207;49.314;7.162;2023-02-19T06:16:49;8.60;99.90
8340;DHT22;4207;49.314;7.162;2023-02-19T06:19:17;8.60;99.90
8340;DHT22;4207;49.314;7.162;2023-02-19T06:21:48;8.60;99.90
8340;DHT22;4207;49.314;7.162;2023-02-19T06:24:17;8.60;99.90
8340;DHT22;4207;49.314;7.162;2023-02-19T06:26:45;8.50;99.90
8340;DHT22;4207;49.314;7.162;2023-02-19T06:29:13;8.60;99.90
8340;DHT22;4207;49.314;7.162;2023-02-19T06:31:41;8.50;99.90
8340;DHT22;4207;49.314;7.162;2023-02-19T06:34:10;8.60;99.90
8340;DHT22;4207;49.314;7.162;2023-02-19T06:36:38;8.60;99.90
8340;DHT22;4207;49.314;7.162;2023-02-19T06:39:08;8.60;99.90
8340;DHT22;4207;49.314;7.162;2023-02-19T06:41:36;8.50;99.90
8340;DHT22;4207;49.314;7.162;2023-02-19T06:44:04;8.50;99.90
8340;DHT22;4207;49.314;7.162;2023-02-19T06:46:32;8.50;99.90
8340;DHT22;4207;49.314;7.162;2023-02-19T06:49:03;8.50;99.90
8340;DHT22;4207;49.314;7.162;2023-02-19T06:51:31;8.50;99.90
8340;DHT22;4207;49.314;7.162;2023-02-19T06:53:59;8.50;99.90
8340;DHT22;4207;49.314;7.162;2023-02-19T06:56:34;8.50;99.90
8340;DHT22;4207;49.314;7.162;2023-02-19T06:59:04;8.50;99.90
8340;DHT22;4207;49.314;7.162;2023-02-19T07:01:34;8.50;99.90
8340;DHT22;4207;49.314;7.162;2023-02-19T07:04:03;8.50;99.90
8340;DHT22;4207;49.314;7.162;2023-02-19T07:06:32;8.60;99.90
8340;DHT22;4207;49.314;7.162;2023-02-19T07:09:01;8.60;99.90
8340;DHT22;4207;49.314;7.162;2023-02-19T07:11:32;8.60;99.90
8340;DHT22;4207;49.314;7.162;2023-02-19T07:14:02;8.60;99.90
8340;DHT22;4207;49.314;7.162;2023-02-19T07:16:30;8.60;99.90
8340;DHT22;4207;49.314;7.162;2023-02-19T07:18:59;8.60;99.90
8340;DHT22;4207;49.314;7.162;2023-02-19T07:21:28;8.60;99.90
8340;DHT22;4207;49.314;7.162;2023-02-19T07:23:56;8.60;99.90
8340;DHT22;4207;49.314;7.162;2023-02-19T07:26:25;8.70;99.90
8340;DHT22;4207;49.314;7.162;2023-02-19T07:28:54;8.70;99.90
8340;DHT22;4207;49.314;7.162;2023-02-19T07:31:23;8.70;99.90
8340;DHT22;4207;49.314;7.162;2023-02-19T07:33:51;8.70;99.90
8340;DHT22;4207;49.314;7.162;2023-02-19T07:36:20;8.70;99.90
8340;DHT22;4207;49.314;7.162;2023-02-19T07:38:52;8.70;99.90
8340;DHT22;4207;49.314;7.162;2023-02-19T07:41:22;8.80;99.90
8340;DHT22;4207;49.314;7.162;2023-02-19T07:43:50;8.80;99.90
8340;DHT22;4207;49.314;7.162;2023-02-19T07:46:21;8.80;99.90
8340;DHT22;4207;49.314;7.162;2023-02-19T07:48:49;8.80;99.90
8340;DHT22;4207;49.314;7.162;2023-02-19T07:51:18;8.90;99.90
8340;DHT22;4207;49.314;7.162;2023-02-19T07:53:47;8.90;99.90
8340;DHT22;4207;49.314;7.162;2023-02-19T07:56:17;8.90;99.90
8340;DHT22;4207;49.314;7.162;2023-02-19T07:58:45;8.90;99.90
8340;DHT22;4207;49.314;7.162;2023-02-19T08:01:14;8.90;99.90
8340;DHT22;4207;49.314;7.162;2023-02-19T08:03:44;9.00;99.90
8340;DHT22;4207;49.314;7.162;2023-02-19T08:06:13;9.00;99.90
8340;DHT22;4207;49.314;7.162;2023-02-19T08:08:41;9.00;99.90
8340;DHT22;4207;49.314;7.162;2023-02-19T08:11:09;9.00;99.90
8340;DHT22;4207;49.314;7.162;2023-02-19T08:13:54;9.10;99.90
8340;DHT22;4207;49.314;7.162;2023-02-19T08:16:22;9.10;99.90
8340;DHT22;4207;49.314;7.162;2023-02-19T08:19:09;9.10;99.90
8340;DHT22;4207;49.314;7.162;2023-02-19T08:21:37;9.10;99.90
8340;DHT22;4207;49.314;7.162;2023-02-19T08:24:05;9.20;99.90
8340;DHT22;4207;49.314;7.162;2023-02-19T08:26:34;9.20;99.90
8340;DHT22;4207;49.314;7.162;2023-02-19T08:29:02;9.30;99.90
8340;DHT22;4207;49.314;7.162;2023-02-19T08:31:31;9.30;99.90
8340;DHT22;4207;49.314;7.162;2023-02-19T08:34:00;9.30;99.90
8340;DHT22;4207;49.314;7.162;2023-02-19T08:36:29;9.30;99.90
8340;DHT22;4207;49.314;7.162;2023-02-19T08:38:57;9.30;99.90
8340;DHT22;4207;49.314;7.162;2023-02-19T08:41:25;9.30;99.90
8340;DHT22;4207;49.314;7.162;2023-02-19T08:43:54;9.30;99.90
8340;DHT22;4207;49.314;7.162;2023-02-19T08:46:21;9.30;99.90
8340;DHT22;4207;49.314;7.162;2023-02-19T08:48:50;9.40;99.90
8340;DHT22;4207;49.314;7.162;2023-02-19T08:51:18;9.40;99.90
8340;DHT22;4207;49.314;7.162;2023-02-19T08:53:47;9.50;99.90
8340;DHT22;4207;49.314;7.162;2023-02-19T08:56:16;9.50;99.90
8340;DHT22;4207;49.314;7.162;2023-02-19T08:58:45;9.60;99.90
8340;DHT22;4207;49.314;7.162;2023-02-19T09:01:14;9.60;99.90
8340;DHT22;4207;49.314;7.162;2023-02-19T09:03:43;9.60;99.90
8340;DHT22;4207;49.314;7.162;2023-02-19T09:06:14;9.60;99.90
8340;DHT22;4207;49.314;7.162;2023-02-19T09:08:43;9.60;99.90
8340;DHT22;4207;49.314;7.162;2023-02-19T09:11:12;9.70;99.90
8340;DHT22;4207;49.314;7.162;2023-02-19T09:13:41;9.70;99.90
8340;DHT22;4207;49.314;7.162;2023-02-19T09:16:09;9.80;99.90
8340;DHT22;4207;49.314;7.162;2023-02-19T09:18:37;9.90;99.90
8340;DHT22;4207;49.314;7.162;2023-02-19T09:21:05;10.00;99.90
8340;DHT22;4207;49.314;7.162;2023-02-19T09:23:35;10.10;99.90
8340;DHT22;4207;49.314;7.162;2023-02-19T09:26:04;10.20;99.90
8340;DHT22;4207;49.314;7.162;2023-02-19T09:28:35;10.20;99.90
8340;DHT22;4207;49.314;7.162;2023-02-19T09:31:09;10.20;99.90
8340;DHT22;4207;49.314;7.162;2023-02-19T09:33:41;10.20;99.90
8340;DHT22;4207;49.314;7.162;2023-02-19T09:36:10;10.20;99.90
8340;DHT22;4207;49.314;7.162;2023-02-19T09:38:38;10.20;99.90
8340;DHT22;4207;49.314;7.162;2023-02-19T09:41:11;10.20;99.90
8340;DHT22;4207;49.314;7.162;2023-02-19T09:43:42;10.20;99.90
8340;DHT22;4207;49.314;7.162;2023-02-19T09:46:23;10.20;99.90
8340;DHT22;4207;49.314;7.162;2023-02-19T09:48:55;10.30;99.90
8340;DHT22;4207;49.314;7.162;2023-02-19T09:51:27;10.30;99.90
8340;DHT22;4207;49.314;7.162;2023-02-19T09:53:56;10.30;99.90
8340;DHT22;4207;49.314;7.162;2023-02-19T09:56:25;10.30;99.90
8340;DHT22;4207;49.314;7.162;2023-02-19T09:58:57;10.30;99.90
8340;DHT22;4207;49.314;7.162;2023-02-19T10:01:29;10.40;99.90
8340;DHT22;4207;49.314;7.162;2023-02-19T10:03:59;10.40;99.90
8340;DHT22;4207;49.314;7.162;2023-02-19T10:06:27;10.30;99.90
8340;DHT22;4207;49.314;7.162;2023-02-19T10:09:10;10.40;99.90
8340;DHT22;4207;49.314;7.162;2023-02-19T10:11:41;10.40;99.90
8340;DHT22;4207;49.314;7.162;2023-02-19T10:14:14;10.50;99.90
8340;DHT22;4207;49.314;7.162;2023-02-19T10:16:45;10.50;99.90
8340;DHT22;4207;49.314;7.162;2023-02-19T10:19:15;10.50;99.90
8340;DHT22;4207;49.314;7.162;2023-02-19T10:21:43;10.40;99.90
8340;DHT22;4207;49.314;7.162;2023-02-19T10:24:15;10.30;99.90
8340;DHT22;4207;49.314;7.162;2023-02-19T10:26:46;10.30;99.90
8340;DHT22;4207;49.314;7.162;2023-02-19T10:29:17;10.20;99.90
8340;DHT22;4207;49.314;7.162;2023-02-19T10:31:47;10.10;99.90
8340;DHT22;4207;49.314;7.162;2023-02-19T10:34:20;10.00;99.90
8340;DHT22;4207;49.314;7.162;2023-02-19T10:36:49;10.00;99.90
8340;DHT22;4207;49.314;7.162;2023-02-19T10:39:35;9.90;99.90
8340;DHT22;4207;49.314;7.162;2023-02-19T10:42:05;9.90;99.90
8340;DHT22;4207;49.314;7.162;2023-02-19T10:44:44;9.90;99.90
8340;DHT22;4207;49.314;7.162;2023-02-19T10:47:17;9.80;99.90
8340;DHT22;4207;49.314;7.162;2023-02-19T10:49:48;9.70;99.90
8340;DHT22;4207;49.314;7.162;2023-02-19T10:52:19;9.70;99.90
8340;DHT22;4207;49.314;7.162;2023-02-19T10:54:50;9.70;99.90
8340;DHT22;4207;49.314;7.162;2023-02-19T10:57:25;9.80;99.90
8340;DHT22;4207;49.314;7.162;2023-02-19T10:59:58;9.90;99.90
8340;DHT22;4207;49.314;7.162;2023-02-19T11:02:28;10.10;99.90
8340;DHT22;4207;49.314;7.162;2023-02-19T11:05:16;10.40;99.90
8340;DHT22;4207;49.314;7.162;2023-02-19T11:07:47;10.60;99.90
8340;DHT22;4207;49.314;7.162;2023-02-19T11:10:24;10.80;99.90
8340;DHT22;4207;49.314;7.162;2023-02-19T11:12:55;11.00;99.90
8340;DHT22;4207;49.314;7.162;2023-02-19T11:15:27;11.00;99.90
8340;DHT22;4207;49.314;7.162;2023-02-19T11:17:59;11.20;99.90
8340;DHT22;4207;49.314;7.162;2023-02-19T11:20:28;11.30;99.90
8340;DHT22;4207;49.314;7.162;2023-02-19T11:23:10;11.40;99.90
8340;DHT22;4207;49.314;7.162;2023-02-19T11:25:44;11.50;99.90
8340;DHT22;4207;49.314;7.162;2023-02-19T11:28:23;11.50;99.90
8340;DHT22;4207;49.314;7.162;2023-02-19T11:31:12;11.60;99.90
8340;DHT22;4207;49.314;7.162;2023-02-19T11:33:47;11.70;99.90
8340;DHT22;4207;49.314;7.162;2023-02-19T11:36:32;11.80;99.90
8340;DHT22;4207;49.314;7.162;2023-02-19T11:39:16;11.90;99.90
8340;DHT22;4207;49.314;7.162;2023-02-19T11:42:12;12.00;99.90
8340;DHT22;4207;49.314;7.162;2023-02-19T11:44:57;12.10;99.90
8340;DHT22;4207;49.314;7.162;2023-02-19T11:47:56;12.10;99.90
8340;DHT22;4207;49.314;7.162;2023-02-19T11:50:32;12.10;99.90
8340;DHT22;4207;49.314;7.162;2023-02-19T11:53:15;12.10;99.90
8340;DHT22;4207;49.314;7.162;2023-02-19T11:56:01;12.00;99.90
8340;DHT22;4207;49.314;7.162;2023-02-19T11:58:59;11.90;99.90
8340;DHT22;4207;49.314;7.162;2023-02-19T12:01:42;11.90;99.90
8340;DHT22;4207;49.314;7.162;2023-02-19T12:07:28;11.60;99.90
8340;DHT22;4207;49.314;7.162;2023-02-19T12:10:09;11.60;99.90
8340;DHT22;4207;49.314;7.162;2023-02-19T12:12:51;11.50;99.90
8340;DHT22;4207;49.314;7.162;2023-02-19T12:15:38;11.50;99.90
8340;DHT22;4207;49.314;7.162;2023-02-19T12:18:19;11.40;99.90
8340;DHT22;4207;49.314;7.162;2023-02-19T12:20:59;11.40;99.90
8340;DHT22;4207;49.314;7.162;2023-02-19T12:23:44;11.50;99.90
8340;DHT22;4207;49.314;7.162;2023-02-19T12:26:21;11.40;99.90
8340;DHT22;4207;49.314;7.162;2023-02-19T12:29:19;11.40;99.90
8340;DHT22;4207;49.314;7.162;2023-02-19T12:31:59;11.40;99.90
8340;DHT22;4207;49.314;7.162;2023-02-19T12:34:58;11.40;99.90
8340;DHT22;4207;49.314;7.162;2023-02-19T12:37:36;11.40;99.90
8340;DHT22;4207;49.314;7.162;2023-02-19T12:40:17;11.50;99.90
8340;DHT22;4207;49.314;7.162;2023-02-19T12:42:56;11.60;99.90
8340;DHT22;4207;49.314;7.162;2023-02-19T12:45:32;11.70;99.90
8340;DHT22;4207;49.314;7.162;2023-02-19T12:48:06;11.90;99.90
8340;DHT22;4207;49.314;7.162;2023-02-19T12:50:38;11.90;99.90
8340;DHT22;4207;49.314;7.162;2023-02-19T12:53:22;11.90;99.90
8340;DHT22;4207;49.314;7.162;2023-02-19T12:55:53;12.00;99.90
8340;DHT22;4207;49.314;7.162;2023-02-19T12:58:26;12.00;99.90
8340;DHT22;4207;49.314;7.162;2023-02-19T13:00:56;12.00;99.90
8340;DHT22;4207;49.314;7.162;2023-02-19T13:03:30;11.90;99.90
8340;DHT22;4207;49.314;7.162;2023-02-19T13:06:03;11.80;99.90
8340;DHT22;4207;49.314;7.162;2023-02-19T13:08:39;11.80;99.90
8340;DHT22;4207;49.314;7.162;2023-02-19T13:11:35;11.80;99.90
8340;DHT22;4207;49.314;7.162;2023-02-19T13:14:10;11.80;99.90
8340;DHT22;4207;49.314;7.162;2023-02-19T13:16:42;11.90;99.90
8340;DHT22;4207;49.314;7.162;2023-02-19T13:19:12;12.00;99.90
8340;DHT22;4207;49.314;7.162;2023-02-19T13:21:41;12.00;99.90
8340;DHT22;4207;49.314;7.162;2023-02-19T13:24:32;12.00;99.90
8340;DHT22;4207;49.314;7.162;2023-02-19T13:27:20;12.00;99.90
8340;DHT22;4207;49.314;7.162;2023-02-19T13:30:06;11.90;99.90
8340;DHT22;4207;49.314;7.162;2023-02-19T13:32:57;11.80;99.90
8340;DHT22;4207;49.314;7.162;2023-02-19T13:35:54;11.80;99.90
8340;DHT22;4207;49.314;7.162;2023-02-19T13:38:27;11.80;99.90
8340;DHT22;4207;49.314;7.162;2023-02-19T13:40:56;11.80;99.90
8340;DHT22;4207;49.314;7.162;2023-02-19T13:43:28;11.90;99.90
8340;DHT22;4207;49.314;7.162;2023-02-19T13:45:59;11.90;99.90
8340;DHT22;4207;49.314;7.162;2023-02-19T13:48:31;11.90;99.90
8340;DHT22;4207;49.314;7.162;2023-02-19T13:51:37;12.00;99.90
8340;DHT22;4207;49.314;7.162;2023-02-19T13:54:26;12.10;99.90
8340;DHT22;4207;49.314;7.162;2023-02-19T13:57:26;12.10;99.90
8340;DHT22;4207;49.314;7.162;2023-02-19T13:59:56;12.00;99.90
8340;DHT22;4207;49.314;7.162;2023-02-19T14:02:28;12.00;99.90
8340;DHT22;4207;49.314;7.162;2023-02-19T14:04:59;12.10;99.90
8340;DHT22;4207;49.314;7.162;2023-02-19T14:10:56;12.10;99.90
8340;DHT22;4207;49.314;7.162;2023-02-19T14:13:53;12.10;99.90
8340;DHT22;4207;49.314;7.162;2023-02-19T14:16:30;12.00;99.90
8340;DHT22;4207;49.314;7.162;2023-02-19T14:18:59;11.90;99.90
8340;DHT22;4207;49.314;7.162;2023-02-19T14:21:34;11.90;99.90
8340;DHT22;4207;49.314;7.162;2023-02-19T14:24:03;11.80;99.90
8340;DHT22;4207;49.314;7.162;2023-02-19T14:26:33;11.80;99.90
8340;DHT22;4207;49.314;7.162;2023-02-19T14:29:01;11.90;99.90
8340;DHT22;4207;49.314;7.162;2023-02-19T14:31:33;11.90;99.90
8340;DHT22;4207;49.314;7.162;2023-02-19T14:34:04;11.80;99.90
8340;DHT22;4207;49.314;7.162;2023-02-19T14:36:38;11.70;99.90
8340;DHT22;4207;49.314;7.162;2023-02-19T14:39:13;11.60;99.90
8340;DHT22;4207;49.314;7.162;2023-02-19T14:41:45;11.50;99.90
8340;DHT22;4207;49.314;7.162;2023-02-19T14:44:18;11.50;99.90
8340;DHT22;4207;49.314;7.162;2023-02-19T14:46:55;11.50;99.90
8340;DHT22;4207;49.314;7.162;2023-02-19T14:49:28;11.60;99.90
8340;DHT22;4207;49.314;7.162;2023-02-19T14:51:59;11.50;99.90
8340;DHT22;4207;49.314;7.162;2023-02-19T14:54:40;11.50;99.90
8340;DHT22;4207;49.314;7.162;2023-02-19T14:57:14;11.50;99.90
8340;DHT22;4207;49.314;7.162;2023-02-19T14:59:54;11.50;99.90
8340;DHT22;4207;49.314;7.162;2023-02-19T15:02:26;11.40;99.90
8340;DHT22;4207;49.314;7.162;2023-02-19T15:04:55;11.30;99.90
8340;DHT22;4207;49.314;7.162;2023-02-19T15:07:26;11.30;99.90
8340;DHT22;4207;49.314;7.162;2023-02-19T15:09:57;11.30;99.90
8340;DHT22;4207;49.314;7.162;2023-02-19T15:12:34;11.20;99.90
8340;DHT22;4207;49.314;7.162;2023-02-19T15:15:06;11.20;99.90
8340;DHT22;4207;49.314;7.162;2023-02-19T15:17:38;11.20;99.90
8340;DHT22;4207;49.314;7.162;2023-02-19T15:20:11;11.10;99.90
8340;DHT22;4207;49.314;7.162;2023-02-19T15:22:43;11.10;99.90
8340;DHT22;4207;49.314;7.162;2023-02-19T15:25:16;11.10;99.90
8340;DHT22;4207;49.314;7.162;2023-02-19T15:27:44;11.10;99.90
8340;DHT22;4207;49.314;7.162;2023-02-19T15:30:20;11.00;99.90
8340;DHT22;4207;49.314;7.162;2023-02-19T15:32:55;11.00;99.90
8340;DHT22;4207;49.314;7.162;2023-02-19T15:35:24;11.00;99.90
8340;DHT22;4207;49.314;7.162;2023-02-19T15:37:53;11.00;99.90
8340;DHT22;4207;49.314;7.162;2023-02-19T15:40:27;10.90;99.90
8340;DHT22;4207;49.314;7.162;2023-02-19T15:42:57;10.90;99.90
8340;DHT22;4207;49.314;7.162;2023-02-19T15:45:28;10.80;99.90
8340;DHT22;4207;49.314;7.162;2023-02-19T15:48:03;10.70;99.90
8340;DHT22;4207;49.314;7.162;2023-02-19T15:50:33;10.60;99.90
8340;DHT22;4207;49.314;7.162;2023-02-19T15:53:05;10.50;99.90
8340;DHT22;4207;49.314;7.162;2023-02-19T15:55:39;10.40;99.90
8340;DHT22;4207;49.314;7.162;2023-02-19T15:58:13;10.40;99.90
8340;DHT22;4207;49.314;7.162;2023-02-19T16:00:47;10.50;99.90
8340;DHT22;4207;49.314;7.162;2023-02-19T16:03:19;10.50;99.90
8340;DHT22;4207;49.314;7.162;2023-02-19T16:05:57;10.50;99.90
8340;DHT22;4207;49.314;7.162;2023-02-19T16:08:29;10.50;99.90
8340;DHT22;4207;49.314;7.162;2023-02-19T16:10:59;10.50;99.90
8340;DHT22;4207;49.314;7.162;2023-02-19T16:13:30;10.50;99.90
8340;DHT22;4207;49.314;7.162;2023-02-19T16:16:05;10.50;99.90
8340;DHT22;4207;49.314;7.162;2023-02-19T16:18:34;10.40;99.90
8340;DHT22;4207;49.314;7.162;2023-02-19T16:21:06;10.40;99.90
8340;DHT22;4207;49.314;7.162;2023-02-19T16:23:35;10.30;99.90
8340;DHT22;4207;49.314;7.162;2023-02-19T16:26:08;10.30;99.90
8340;DHT22;4207;49.314;7.162;2023-02-19T16:28:37;10.30;99.90
8340;DHT22;4207;49.314;7.162;2023-02-19T16:31:07;10.30;99.90
8340;DHT22;4207;49.314;7.162;2023-02-19T16:33:39;10.30;99.90
8340;DHT22;4207;49.314;7.162;2023-02-19T16:36:34;10.20;99.90
8340;DHT22;4207;49.314;7.162;2023-02-19T16:39:22;10.20;99.90
8340;DHT22;4207;49.314;7.162;2023-02-19T16:42:10;10.20;99.90
8340;DHT22;4207;49.314;7.162;2023-02-19T16:44:38;10.20;99.90
8340;DHT22;4207;49.314;7.162;2023-02-19T16:47:24;10.10;99.90
8340;DHT22;4207;49.314;7.162;2023-02-19T16:49:56;10.10;99.90
8340;DHT22;4207;49.314;7.162;2023-02-19T16:52:25;10.10;99.90
8340;DHT22;4207;49.314;7.162;2023-02-19T16:54:54;10.00;99.90
8340;DHT22;4207;49.314;7.162;2023-02-19T16:57:22;10.00;99.90